createdAt,value
2023-01-19T00:00:57.127Z,79.26
2023-01-19T00:01:57.107Z,79.68
2023-01-19T00:02:57.076Z,79.88
2023-01-19T00:03:57.087Z,79.68
2023-01-19T00:04:57.051Z,79.78
2023-01-19T00:05:57.114Z,79.99
2023-01-19T00:06:57.050Z,79.78
2023-01-19T00:07:57.111Z,79.57
2023-01-19T00:08:57.037Z,79.99
2023-01-19T00:09:57.030Z,79.71
2023-01-19T00:10:57.020Z,79.78
2023-01-19T00:11:57.027Z,79.47
2023-01-19T00:12:57.028Z,79.47
2023-01-19T00:13:57.002Z,79.68
2023-01-19T00:14:56.998Z,79.36
2023-01-19T00:15:57.000Z,79.68
2023-01-19T00:16:57.000Z,79.99
2023-01-19T00:17:56.979Z,79.88
2023-01-19T00:18:57.087Z,79.88
2023-01-19T00:19:56.970Z,79.88
2023-01-19T00:20:56.957Z,79.57
2023-01-19T00:21:57.964Z,80.09
2023-01-19T00:22:57.256Z,79.26
2023-01-19T00:23:56.998Z,79.26
2023-01-19T00:24:56.963Z,79.15
2023-01-19T00:25:56.920Z,79.47
2023-01-19T00:26:56.914Z,79.36
2023-01-19T00:27:57.157Z,79.15
2023-01-19T00:28:57.929Z,79.36
2023-01-19T00:29:56.917Z,79.99
2023-01-19T00:30:56.909Z,79.57
2023-01-19T00:31:56.894Z,79.53
2023-01-19T00:32:57.018Z,79.36
2023-01-19T00:33:57.896Z,79.05
2023-01-19T00:34:56.893Z,79.26
2023-01-19T00:35:56.922Z,79.11
2023-01-19T00:36:56.892Z,77.76
2023-01-19T00:37:56.863Z,78.18
2023-01-19T00:38:56.874Z,78.63
2023-01-19T00:39:56.841Z,78.84
2023-01-19T00:40:56.840Z,78.94
2023-01-19T00:41:56.837Z,79.26
2023-01-19T00:42:56.836Z,79.15
2023-01-19T00:43:56.831Z,79.33
2023-01-19T00:44:56.831Z,78.70
2023-01-19T00:45:56.884Z,78.94
2023-01-19T00:46:56.802Z,79.36
2023-01-19T00:47:56.811Z,79.26
2023-01-19T00:48:56.792Z,79.57
2023-01-19T00:49:56.792Z,79.88
2023-01-19T00:50:56.810Z,79.36
2023-01-19T00:51:56.772Z,79.47
2023-01-19T00:52:56.766Z,79.57
2023-01-19T00:53:56.780Z,79.05
2023-01-19T00:54:56.758Z,79.57
2023-01-19T00:55:56.768Z,79.50
2023-01-19T00:56:56.773Z,79.57
2023-01-19T00:57:56.746Z,79.68
2023-01-19T00:58:56.728Z,79.57
2023-01-19T00:59:56.728Z,79.78
2023-01-19T01:00:56.855Z,79.99
2023-01-19T01:01:56.909Z,79.88
2023-01-19T01:02:56.758Z,80.02
2023-01-19T01:03:56.704Z,79.99
2023-01-19T01:04:57.700Z,79.99
2023-01-19T01:05:56.713Z,79.88
2023-01-19T01:06:56.704Z,79.78
2023-01-19T01:07:56.709Z,79.53
2023-01-19T01:08:56.688Z,79.11
2023-01-19T01:09:56.702Z,79.26
2023-01-19T01:10:56.661Z,79.33
2023-01-19T01:11:56.691Z,78.91
2023-01-19T01:12:58.959Z,78.77
2023-01-19T01:13:56.664Z,78.35
2023-01-19T01:14:56.665Z,78.25
2023-01-19T01:15:56.632Z,78.14
2023-01-19T01:16:56.633Z,78.04
2023-01-19T01:17:56.681Z,78.04
2023-01-19T01:18:56.622Z,78.56
2023-01-19T01:19:56.617Z,78.45
2023-01-19T01:20:56.633Z,77.69
2023-01-19T01:21:56.626Z,77.17
2023-01-19T01:22:56.660Z,77.80
2023-01-19T01:23:56.624Z,77.69
2023-01-19T01:24:56.592Z,77.90
2023-01-19T01:25:56.586Z,77.69
2023-01-19T01:26:56.596Z,77.69
2023-01-19T01:27:56.593Z,78.00
2023-01-19T01:28:56.574Z,77.66
2023-01-19T01:29:56.597Z,77.27
2023-01-19T01:30:56.561Z,77.45
2023-01-19T01:31:56.572Z,77.45
2023-01-19T01:32:56.537Z,77.23
2023-01-19T01:33:56.532Z,77.13
2023-01-19T01:34:56.525Z,77.34
2023-01-19T01:35:56.566Z,77.13
2023-01-19T01:36:56.508Z,77.34
2023-01-19T01:37:56.513Z,77.45
2023-01-19T01:38:56.527Z,77.03
2023-01-19T01:39:56.488Z,76.86
2023-01-19T01:40:56.488Z,77.06
2023-01-19T01:41:57.570Z,76.82
2023-01-19T01:42:56.459Z,77.03
2023-01-19T01:43:56.472Z,77.34
2023-01-19T01:44:56.476Z,77.06
2023-01-19T01:45:56.479Z,77.13
2023-01-19T01:46:56.483Z,77.69
2023-01-19T01:47:56.479Z,77.58
2023-01-19T01:48:56.475Z,78.11
2023-01-19T01:49:56.447Z,78.25
2023-01-19T01:50:56.461Z,78.45
2023-01-19T01:51:56.444Z,78.87
2023-01-19T01:53:06.319Z,79.05
2023-01-19T01:53:57.438Z,78.94
2023-01-19T01:54:56.402Z,78.45
2023-01-19T01:55:57.028Z,78.77
2023-01-19T01:56:56.439Z,79.39
2023-01-19T01:57:56.634Z,79.39
2023-01-19T01:58:56.533Z,78.73
2023-01-19T01:59:56.445Z,79.05
2023-01-19T02:00:56.596Z,78.83
2023-01-19T02:01:56.517Z,79.05
2023-01-19T02:02:56.523Z,79.19
2023-01-19T02:03:56.525Z,79.25
2023-01-19T02:04:56.488Z,78.83
2023-01-19T02:05:56.517Z,79.05
2023-01-19T02:06:56.404Z,79.05
2023-01-19T02:07:56.417Z,78.91
2023-01-19T02:08:56.430Z,78.83
2023-01-19T02:09:56.324Z,79.05
2023-01-19T02:10:56.329Z,79.25
2023-01-19T02:11:56.304Z,79.67
2023-01-19T02:12:56.316Z,79.32
2023-01-19T02:13:56.289Z,78.73
2023-01-19T02:14:56.271Z,78.91
2023-01-19T02:15:56.276Z,78.80
2023-01-19T02:16:57.263Z,78.83
2023-01-19T02:17:56.267Z,78.83
2023-01-19T02:18:56.244Z,79.22
2023-01-19T02:19:56.267Z,79.32
2023-01-19T02:20:56.236Z,78.83
2023-01-19T02:21:56.231Z,79.36
2023-01-19T02:22:56.247Z,79.15
2023-01-19T02:23:56.218Z,79.25
2023-01-19T02:24:56.203Z,79.05
2023-01-19T02:25:56.225Z,78.63
2023-01-19T02:26:56.200Z,78.63
2023-01-19T02:27:56.204Z,78.63
2023-01-19T02:28:56.194Z,79.39
2023-01-19T02:29:56.176Z,79.36
2023-01-19T02:30:56.213Z,79.57
2023-01-19T02:31:56.190Z,79.08
2023-01-19T02:32:56.190Z,80.02
2023-01-19T02:33:56.144Z,79.67
2023-01-19T02:34:56.168Z,79.36
2023-01-19T02:35:56.156Z,79.46
2023-01-19T02:36:56.146Z,79.15
2023-01-19T02:37:56.125Z,79.50
2023-01-19T02:38:56.236Z,80.13
2023-01-19T02:39:56.117Z,79.71
2023-01-19T02:40:56.115Z,79.91
2023-01-19T02:41:56.164Z,80.23
2023-01-19T02:42:56.098Z,79.88
2023-01-19T02:43:56.105Z,79.15
2023-01-19T02:44:56.091Z,79.39
2023-01-19T02:45:56.118Z,79.36
2023-01-19T02:46:56.078Z,79.50
2023-01-19T02:47:56.078Z,79.81
2023-01-19T02:48:56.094Z,79.77
2023-01-19T02:49:56.062Z,79.71
2023-01-19T02:50:56.076Z,79.50
2023-01-19T02:51:56.055Z,80.27
2023-01-19T02:52:56.041Z,80.58
2023-01-19T02:53:56.030Z,80.58
2023-01-19T02:54:56.050Z,80.75
2023-01-19T02:55:56.030Z,80.16
2023-01-19T02:56:56.020Z,80.44
2023-01-19T02:57:56.004Z,80.54
2023-01-19T02:58:56.027Z,80.44
2023-01-19T02:59:56.011Z,80.23
2023-01-19T03:00:56.062Z,80.09
2023-01-19T03:01:56.099Z,79.88
2023-01-19T03:02:55.987Z,79.64
2023-01-19T03:03:55.982Z,80.79
2023-01-19T03:04:55.970Z,81.06
2023-01-19T03:05:55.980Z,80.44
2023-01-19T03:06:55.958Z,80.33
2023-01-19T03:07:55.943Z,80.19
2023-01-19T03:08:55.947Z,79.71
2023-01-19T03:09:55.944Z,79.81
2023-01-19T03:10:55.951Z,80.23
2023-01-19T03:11:55.921Z,80.02
2023-01-19T03:12:55.937Z,79.98
2023-01-19T03:13:55.907Z,80.09
2023-01-19T03:14:55.906Z,80.16
2023-01-19T03:15:55.973Z,80.33
2023-01-19T03:16:55.963Z,80.19
2023-01-19T03:17:55.885Z,79.88
2023-01-19T03:18:55.907Z,79.25
2023-01-19T03:19:55.862Z,79.25
2023-01-19T03:20:55.887Z,79.32
2023-01-19T03:21:55.870Z,79.15
2023-01-19T03:22:55.862Z,79.36
2023-01-19T03:23:55.850Z,79.57
2023-01-19T03:24:55.851Z,79.67
2023-01-19T03:25:55.853Z,79.88
2023-01-19T03:26:55.848Z,80.09
2023-01-19T03:27:55.833Z,79.67
2023-01-19T03:28:55.812Z,79.67
2023-01-19T03:29:55.817Z,79.88
2023-01-19T03:30:55.830Z,79.81
2023-01-19T03:31:55.820Z,80.54
2023-01-19T03:32:55.812Z,80.30
2023-01-19T03:33:55.797Z,79.91
2023-01-19T03:34:55.795Z,80.02
2023-01-19T03:35:55.777Z,79.67
2023-01-19T03:36:55.775Z,80.68
2023-01-19T03:37:55.802Z,80.85
2023-01-19T03:38:55.774Z,80.65
2023-01-19T03:39:55.754Z,80.44
2023-01-19T03:40:55.762Z,80.54
2023-01-19T03:41:55.754Z,80.68
2023-01-19T03:42:55.752Z,80.54
2023-01-19T03:43:55.765Z,80.44
2023-01-19T03:44:55.716Z,80.54
2023-01-19T03:45:55.750Z,80.33
2023-01-19T03:46:55.774Z,80.68
2023-01-19T03:47:55.710Z,80.68
2023-01-19T03:48:55.687Z,80.79
2023-01-19T03:49:55.694Z,81.41
2023-01-19T03:50:55.671Z,81.21
2023-01-19T03:51:55.682Z,80.89
2023-01-19T03:52:55.692Z,81.76
2023-01-19T03:53:55.667Z,82.25
2023-01-19T03:54:55.656Z,81.52
2023-01-19T03:55:55.663Z,81.31
2023-01-19T03:56:55.653Z,81.31
2023-01-19T03:57:55.658Z,81.41
2023-01-19T03:58:56.985Z,80.75
2023-01-19T03:59:56.621Z,80.23
2023-01-19T04:00:55.695Z,80.37
2023-01-19T04:01:55.686Z,80.79
2023-01-19T04:02:55.648Z,80.58
2023-01-19T04:03:55.596Z,80.79
2023-01-19T04:04:55.613Z,80.75
2023-01-19T04:05:55.589Z,81.38
2023-01-19T04:06:55.579Z,82.81
2023-01-19T04:07:55.639Z,82.60
2023-01-19T04:08:55.573Z,81.87
2023-01-19T04:09:55.555Z,81.45
2023-01-19T04:10:55.563Z,81.56
2023-01-19T04:11:55.550Z,81.62
2023-01-19T04:12:55.546Z,81.10
2023-01-19T04:13:55.559Z,80.89
2023-01-19T04:14:55.529Z,80.72
2023-01-19T04:15:55.552Z,81.13
2023-01-19T04:16:55.569Z,81.35
2023-01-19T04:17:55.528Z,81.56
2023-01-19T04:18:55.501Z,82.50
2023-01-19T04:19:55.506Z,82.07
2023-01-19T04:20:55.489Z,81.73
2023-01-19T04:21:55.490Z,81.13
2023-01-19T04:22:55.505Z,80.99
2023-01-19T04:23:55.469Z,81.24
2023-01-19T04:24:55.466Z,81.56
2023-01-19T04:25:55.481Z,81.56
2023-01-19T04:26:55.456Z,82.07
2023-01-19T04:27:55.485Z,81.97
2023-01-19T04:28:55.452Z,82.29
2023-01-19T04:29:55.433Z,82.29
2023-01-19T04:30:55.484Z,82.60
2023-01-19T04:31:55.445Z,82.84
2023-01-19T04:32:55.449Z,83.12
2023-01-19T04:33:55.419Z,82.81
2023-01-19T04:34:55.442Z,82.60
2023-01-19T04:35:55.434Z,82.14
2023-01-19T04:36:55.406Z,82.50
2023-01-19T04:37:55.426Z,82.50
2023-01-19T04:38:55.404Z,82.70
2023-01-19T04:39:55.404Z,82.60
2023-01-19T04:40:55.389Z,83.23
2023-01-19T04:41:55.386Z,82.74
2023-01-19T04:42:55.376Z,82.70
2023-01-19T04:43:55.353Z,82.91
2023-01-19T04:44:55.356Z,83.16
2023-01-19T04:45:56.375Z,83.44
2023-01-19T04:46:55.353Z,82.60
2023-01-19T04:47:55.350Z,82.18
2023-01-19T04:48:55.333Z,82.14
2023-01-19T04:49:55.339Z,82.35
2023-01-19T04:50:55.344Z,82.81
2023-01-19T04:51:55.310Z,82.60
2023-01-19T04:52:55.320Z,82.18
2023-01-19T04:53:55.350Z,82.29
2023-01-19T04:54:55.300Z,82.81
2023-01-19T04:55:55.302Z,83.01
2023-01-19T04:56:55.295Z,82.91
2023-01-19T04:57:55.304Z,82.39
2023-01-19T04:58:55.294Z,82.70
2023-01-19T04:59:55.296Z,82.70
2023-01-19T05:00:55.319Z,83.12
2023-01-19T05:01:55.278Z,83.01
2023-01-19T05:02:55.278Z,82.91
2023-01-19T05:03:55.297Z,83.01
2023-01-19T05:04:55.248Z,83.44
2023-01-19T05:05:55.234Z,83.18
2023-01-19T05:06:55.239Z,82.50
2023-01-19T05:07:55.229Z,82.81
2023-01-19T05:08:55.224Z,83.08
2023-01-19T05:09:55.240Z,82.60
2023-01-19T05:10:55.222Z,82.56
2023-01-19T05:11:55.205Z,82.25
2023-01-19T05:12:55.203Z,82.35
2023-01-19T05:13:55.211Z,82.14
2023-01-19T05:14:55.187Z,82.60
2023-01-19T05:15:55.284Z,82.46
2023-01-19T05:16:55.212Z,82.67
2023-01-19T05:17:55.160Z,81.93
2023-01-19T05:18:55.186Z,82.04
2023-01-19T05:19:55.144Z,82.35
2023-01-19T05:20:55.144Z,82.98
2023-01-19T05:21:55.176Z,82.67
2023-01-19T05:22:55.134Z,82.56
2023-01-19T05:23:55.132Z,82.94
2023-01-19T05:24:55.214Z,81.69
2023-01-19T05:25:56.119Z,82.00
2023-01-19T05:26:55.130Z,81.96
2023-01-19T05:27:55.121Z,81.69
2023-01-19T05:28:55.098Z,82.21
2023-01-19T05:29:55.095Z,82.42
2023-01-19T05:30:55.112Z,82.94
2023-01-19T05:31:55.121Z,82.10
2023-01-19T05:32:55.062Z,82.21
2023-01-19T05:33:55.070Z,82.21
2023-01-19T05:34:55.079Z,81.90
2023-01-19T05:35:55.094Z,82.63
2023-01-19T05:36:55.062Z,82.07
2023-01-19T05:37:55.439Z,82.21
2023-01-19T05:38:55.035Z,81.96
2023-01-19T05:39:55.082Z,82.42
2023-01-19T05:40:55.050Z,82.28
2023-01-19T05:41:55.032Z,82.48
2023-01-19T05:42:54.999Z,82.84
2023-01-19T05:43:55.009Z,82.59
2023-01-19T05:44:55.005Z,82.90
2023-01-19T05:45:54.999Z,81.86
2023-01-19T05:46:55.036Z,81.55
2023-01-19T05:47:54.971Z,82.07
2023-01-19T05:48:54.966Z,82.07
2023-01-19T05:49:54.968Z,82.00
2023-01-19T05:50:54.997Z,82.38
2023-01-19T05:51:54.973Z,82.00
2023-01-19T05:52:54.950Z,83.36
2023-01-19T05:53:54.957Z,83.15
2023-01-19T05:54:54.923Z,82.42
2023-01-19T05:55:54.976Z,82.84
2023-01-19T05:56:54.913Z,82.73
2023-01-19T05:57:54.910Z,83.78
2023-01-19T05:58:54.941Z,83.04
2023-01-19T05:59:55.018Z,82.84
2023-01-19T06:00:54.910Z,82.84
2023-01-19T06:01:55.517Z,83.57
2023-01-19T06:02:54.915Z,82.56
2023-01-19T06:03:54.939Z,83.15
2023-01-19T06:04:54.859Z,83.15
2023-01-19T06:05:54.854Z,83.04
2023-01-19T06:06:54.877Z,82.94
2023-01-19T06:07:54.847Z,83.57
2023-01-19T06:08:54.865Z,83.08
2023-01-19T06:09:54.852Z,83.40
2023-01-19T06:10:54.827Z,83.40
2023-01-19T06:11:54.851Z,83.25
2023-01-19T06:12:54.829Z,83.47
2023-01-19T06:13:54.800Z,83.15
2023-01-19T06:14:54.803Z,83.36
2023-01-19T06:15:54.832Z,83.04
2023-01-19T06:16:54.787Z,82.84
2023-01-19T06:17:54.817Z,82.84
2023-01-19T06:18:54.787Z,83.29
2023-01-19T06:19:54.780Z,83.67
2023-01-19T06:20:54.772Z,83.15
2023-01-19T06:21:54.790Z,83.04
2023-01-19T06:22:54.766Z,83.36
2023-01-19T06:23:54.795Z,82.56
2023-01-19T06:24:54.743Z,83.15
2023-01-19T06:25:54.952Z,83.32
2023-01-19T06:26:54.731Z,83.04
2023-01-19T06:27:54.765Z,83.22
2023-01-19T06:28:54.760Z,82.59
2023-01-19T06:29:54.755Z,82.42
2023-01-19T06:30:54.777Z,82.53
2023-01-19T06:31:54.790Z,83.47
2023-01-19T06:32:54.719Z,82.73
2023-01-19T06:33:54.729Z,82.73
2023-01-19T06:34:54.697Z,83.36
2023-01-19T06:35:54.669Z,83.25
2023-01-19T06:36:54.684Z,82.94
2023-01-19T06:37:54.758Z,83.15
2023-01-19T06:38:54.664Z,82.53
2023-01-19T06:39:54.654Z,83.15
2023-01-19T06:40:54.654Z,83.40
2023-01-19T06:41:55.509Z,82.94
2023-01-19T06:42:54.632Z,83.04
2023-01-19T06:43:54.645Z,83.57
2023-01-19T06:44:54.636Z,82.98
2023-01-19T06:45:54.740Z,83.47
2023-01-19T06:47:14.631Z,83.61
2023-01-19T06:47:55.636Z,82.84
2023-01-19T06:48:54.638Z,83.57
2023-01-19T06:49:54.614Z,83.08
2023-01-19T06:50:54.608Z,83.67
2023-01-19T06:51:54.613Z,83.15
2023-01-19T06:52:54.580Z,83.78
2023-01-19T06:53:54.571Z,83.04
2023-01-19T06:54:54.580Z,82.94
2023-01-19T06:55:54.573Z,83.67
2023-01-19T06:56:54.564Z,83.11
2023-01-19T06:57:54.587Z,83.36
2023-01-19T06:58:54.551Z,82.84
2023-01-19T06:59:54.539Z,83.04
2023-01-19T07:00:54.630Z,82.48
2023-01-19T07:01:54.632Z,82.42
2023-01-19T07:02:54.567Z,82.70
2023-01-19T07:03:54.518Z,82.28
2023-01-19T07:04:54.528Z,81.86
2023-01-19T07:05:54.504Z,82.07
2023-01-19T07:06:54.504Z,81.86
2023-01-19T07:07:55.542Z,81.65
2023-01-19T07:08:54.483Z,82.28
2023-01-19T07:09:54.467Z,81.65
2023-01-19T07:11:25.748Z,81.62
2023-01-19T07:11:55.559Z,81.96
2023-01-19T07:12:54.470Z,82.03
2023-01-19T07:13:54.508Z,81.86
2023-01-19T07:14:54.460Z,81.96
2023-01-19T07:15:55.541Z,81.41
2023-01-19T07:16:54.477Z,81.86
2023-01-19T07:17:54.501Z,81.86
2023-01-19T07:18:54.430Z,82.07
2023-01-19T07:19:54.418Z,81.86
2023-01-19T07:20:54.433Z,82.70
2023-01-19T07:21:54.398Z,82.70
2023-01-19T07:22:54.980Z,82.17
2023-01-19T07:23:54.438Z,81.93
2023-01-19T07:24:54.408Z,81.65
2023-01-19T07:25:54.397Z,81.72
2023-01-19T07:26:54.376Z,81.93
2023-01-19T07:27:54.364Z,81.86
2023-01-19T07:28:54.364Z,81.96
2023-01-19T07:29:54.406Z,81.76
2023-01-19T07:30:54.419Z,81.41
2023-01-19T07:31:54.395Z,81.51
2023-01-19T07:32:54.327Z,81.79
2023-01-19T07:33:54.349Z,81.51
2023-01-19T07:34:54.325Z,81.41
2023-01-19T07:35:54.316Z,81.82
2023-01-19T07:36:54.320Z,81.76
2023-01-19T07:37:54.308Z,81.82
2023-01-19T07:38:54.287Z,81.51
2023-01-19T07:39:54.334Z,81.51
2023-01-19T07:40:54.291Z,80.99
2023-01-19T07:41:54.748Z,81.41
2023-01-19T07:42:54.275Z,81.82
2023-01-19T07:43:54.261Z,81.51
2023-01-19T07:44:54.337Z,81.26
2023-01-19T07:45:54.292Z,81.05
2023-01-19T07:46:54.272Z,81.68
2023-01-19T07:47:54.244Z,81.37
2023-01-19T07:48:54.260Z,81.37
2023-01-19T07:49:54.224Z,81.16
2023-01-19T07:50:54.269Z,81.16
2023-01-19T07:51:54.232Z,81.16
2023-01-19T07:52:54.209Z,81.20
2023-01-19T07:53:54.235Z,81.93
2023-01-19T07:54:54.222Z,81.89
2023-01-19T07:55:54.231Z,81.37
2023-01-19T07:56:54.195Z,81.02
2023-01-19T07:57:54.198Z,81.05
2023-01-19T07:58:54.186Z,82.34
2023-01-19T07:59:54.190Z,82.41
2023-01-19T08:00:54.322Z,82.34
2023-01-19T08:01:54.464Z,81.99
2023-01-19T08:02:54.157Z,81.58
2023-01-19T08:03:54.195Z,81.68
2023-01-19T08:04:54.178Z,81.85
2023-01-19T08:05:54.139Z,81.23
2023-01-19T08:06:54.189Z,80.98
2023-01-19T08:07:54.282Z,80.46
2023-01-19T08:08:55.124Z,79.55
2023-01-19T08:09:54.141Z,78.86
2023-01-19T08:10:54.094Z,79.66
2023-01-19T08:11:54.136Z,78.97
2023-01-19T08:12:54.115Z,78.06
2023-01-19T08:13:54.097Z,78.93
2023-01-19T08:14:54.080Z,78.41
2023-01-19T08:15:54.129Z,79.49
2023-01-19T08:16:54.074Z,79.28
2023-01-19T08:17:54.099Z,79.83
2023-01-19T08:18:54.093Z,79.83
2023-01-19T08:19:54.045Z,80.74
2023-01-19T08:20:54.039Z,80.01
2023-01-19T08:21:54.054Z,79.17
2023-01-19T08:22:54.037Z,79.21
2023-01-19T08:23:54.074Z,79.91
2023-01-19T08:24:54.052Z,80.01
2023-01-19T08:25:54.007Z,79.73
2023-01-19T08:26:54.013Z,80.29
2023-01-19T08:27:54.032Z,81.02
2023-01-19T08:28:53.999Z,81.23
2023-01-19T08:29:53.998Z,80.91
2023-01-19T08:30:54.302Z,80.91
2023-01-19T08:31:54.014Z,81.50
2023-01-19T08:32:54.984Z,81.43
2023-01-19T08:33:54.034Z,81.37
2023-01-19T08:34:53.940Z,81.85
2023-01-19T08:35:53.958Z,81.43
2023-01-19T08:36:53.953Z,81.85
2023-01-19T08:37:53.933Z,81.43
2023-01-19T08:38:53.975Z,81.50
2023-01-19T08:39:53.972Z,80.88
2023-01-19T08:40:53.908Z,80.43
2023-01-19T08:41:53.910Z,80.98
2023-01-19T08:42:53.911Z,80.43
2023-01-19T08:43:53.921Z,80.32
2023-01-19T08:44:58.122Z,80.43
2023-01-19T08:45:54.897Z,80.46
2023-01-19T08:46:53.940Z,80.57
2023-01-19T08:47:53.878Z,81.09
2023-01-19T08:48:53.894Z,81.09
2023-01-19T08:49:54.874Z,80.63
2023-01-19T08:50:53.866Z,80.08
2023-01-19T08:51:53.872Z,80.11
2023-01-19T08:52:53.846Z,80.43
2023-01-19T08:53:53.849Z,80.32
2023-01-19T08:54:53.868Z,80.22
2023-01-19T08:55:53.833Z,80.32
2023-01-19T08:56:53.838Z,80.43
2023-01-19T08:57:53.818Z,80.22
2023-01-19T08:59:08.087Z,80.39
2023-01-19T08:59:55.830Z,80.29
2023-01-19T09:00:53.845Z,80.39
2023-01-19T09:01:53.951Z,79.72
2023-01-19T09:02:53.845Z,79.24
2023-01-19T09:03:53.781Z,79.10
2023-01-19T09:04:53.774Z,79.55
2023-01-19T09:05:54.128Z,79.87
2023-01-19T09:06:53.770Z,80.08
2023-01-19T09:07:53.750Z,79.41
2023-01-19T09:08:53.749Z,79.55
2023-01-19T09:09:53.765Z,79.24
2023-01-19T09:10:53.752Z,79.66
2023-01-19T09:11:53.739Z,79.52
2023-01-19T09:12:53.735Z,79.03
2023-01-19T09:13:53.730Z,79.55
2023-01-19T09:14:53.716Z,80.39
2023-01-19T09:15:53.728Z,79.97
2023-01-19T09:16:53.720Z,79.87
2023-01-19T09:17:53.696Z,79.97
2023-01-19T09:18:53.713Z,80.22
2023-01-19T09:19:53.679Z,81.46
2023-01-19T09:20:53.680Z,82.61
2023-01-19T09:21:53.704Z,83.06
2023-01-19T09:22:53.663Z,84.11
2023-01-19T09:23:53.671Z,84.63
2023-01-19T09:24:53.663Z,84.94
2023-01-19T09:25:53.647Z,86.43
2023-01-19T09:26:53.656Z,86.65
2023-01-19T09:27:53.643Z,87.68
2023-01-19T09:28:53.633Z,87.96
2023-01-19T09:29:53.624Z,88.10
2023-01-19T09:30:53.891Z,88.66
2023-01-19T09:31:53.677Z,89.25
2023-01-19T09:32:53.605Z,89.87
2023-01-19T09:33:53.610Z,89.66
2023-01-19T09:34:53.601Z,89.98
2023-01-19T09:35:53.590Z,90.08
2023-01-19T09:36:53.609Z,89.66
2023-01-19T09:37:53.574Z,89.98
2023-01-19T09:38:53.562Z,89.50
2023-01-19T09:39:53.661Z,90.60
2023-01-19T09:40:53.588Z,90.70
2023-01-19T09:41:53.550Z,90.77
2023-01-19T09:42:53.557Z,90.97
2023-01-19T09:43:53.555Z,89.94
2023-01-19T09:44:53.531Z,90.25
2023-01-19T09:45:53.537Z,90.70
2023-01-19T09:46:53.536Z,90.97
2023-01-19T09:47:53.536Z,90.70
2023-01-19T09:48:53.552Z,90.50
2023-01-19T09:49:53.518Z,90.50
2023-01-19T09:50:53.495Z,91.28
2023-01-19T09:51:54.485Z,90.56
2023-01-19T09:52:53.503Z,90.08
2023-01-19T09:53:53.587Z,90.81
2023-01-19T09:54:53.476Z,90.70
2023-01-19T09:55:53.489Z,90.91
2023-01-19T09:56:53.474Z,90.87
2023-01-19T09:57:53.505Z,90.56
2023-01-19T09:58:53.603Z,89.83
2023-01-19T09:59:53.440Z,90.56
2023-01-19T10:00:53.629Z,90.14
2023-01-19T10:01:53.487Z,90.56
2023-01-19T10:02:53.476Z,91.08
2023-01-19T10:03:53.485Z,90.10
2023-01-19T10:04:53.425Z,89.89
2023-01-19T10:05:53.418Z,89.79
2023-01-19T10:06:53.406Z,89.48
2023-01-19T10:07:53.475Z,89.54
2023-01-19T10:08:54.413Z,88.85
2023-01-19T10:09:53.380Z,88.96
2023-01-19T10:10:53.373Z,88.85
2023-01-19T10:11:53.697Z,88.58
2023-01-19T10:12:53.359Z,88.85
2023-01-19T10:13:53.353Z,89.20
2023-01-19T10:14:53.363Z,89.33
2023-01-19T10:15:53.394Z,88.60
2023-01-19T10:16:53.331Z,88.54
2023-01-19T10:17:53.365Z,88.75
2023-01-19T10:18:53.344Z,89.12
2023-01-19T10:19:53.317Z,88.23
2023-01-19T10:20:53.313Z,87.98
2023-01-19T10:21:53.312Z,87.56
2023-01-19T10:22:53.368Z,88.09
2023-01-19T10:23:53.300Z,87.66
2023-01-19T10:24:53.329Z,87.56
2023-01-19T10:25:53.455Z,87.19
2023-01-19T10:26:53.427Z,87.40
2023-01-19T10:27:53.290Z,87.98
2023-01-19T10:28:53.300Z,87.81
2023-01-19T10:29:53.266Z,87.81
2023-01-19T10:30:53.300Z,87.92
2023-01-19T10:31:53.337Z,87.35
2023-01-19T10:32:53.256Z,87.56
2023-01-19T10:33:53.235Z,86.94
2023-01-19T10:34:53.307Z,87.19
2023-01-19T10:35:54.228Z,87.60
2023-01-19T10:36:53.244Z,87.56
2023-01-19T10:37:53.215Z,86.73
2023-01-19T10:38:53.211Z,87.15
2023-01-19T10:39:53.238Z,87.04
2023-01-19T10:40:53.195Z,86.83
2023-01-19T10:41:53.348Z,86.50
2023-01-19T10:42:53.188Z,87.08
2023-01-19T10:43:53.194Z,87.04
2023-01-19T10:44:53.254Z,86.42
2023-01-19T10:45:53.226Z,86.52
2023-01-19T10:46:53.165Z,86.63
2023-01-19T10:47:53.241Z,86.32
2023-01-19T10:48:53.142Z,86.38
2023-01-19T10:49:53.182Z,86.80
2023-01-19T10:50:53.136Z,85.28
2023-01-19T10:51:53.150Z,86.46
2023-01-19T10:52:53.153Z,86.21
2023-01-19T10:53:53.111Z,86.35
2023-01-19T10:54:53.127Z,86.32
2023-01-19T10:55:53.166Z,86.32
2023-01-19T10:56:53.113Z,86.52
2023-01-19T10:57:53.197Z,86.21
2023-01-19T10:58:53.147Z,86.21
2023-01-19T10:59:53.188Z,86.21
2023-01-19T11:00:53.207Z,86.42
2023-01-19T11:01:53.267Z,86.21
2023-01-19T11:02:53.143Z,86.21
2023-01-19T11:03:53.149Z,86.25
2023-01-19T11:04:53.281Z,86.63
2023-01-19T11:05:53.058Z,86.63
2023-01-19T11:06:53.102Z,86.21
2023-01-19T11:07:53.124Z,86.32
2023-01-19T11:08:53.092Z,86.32
2023-01-19T11:09:53.010Z,86.21
2023-01-19T11:10:53.023Z,86.42
2023-01-19T11:11:53.030Z,86.83
2023-01-19T11:12:52.994Z,87.25
2023-01-19T11:13:53.000Z,86.94
2023-01-19T11:14:53.016Z,86.77
2023-01-19T11:15:52.995Z,86.42
2023-01-19T11:16:52.981Z,86.83
2023-01-19T11:17:52.958Z,86.42
2023-01-19T11:18:52.981Z,86.63
2023-01-19T11:19:52.974Z,86.52
2023-01-19T11:20:52.973Z,86.42
2023-01-19T11:21:52.973Z,86.42
2023-01-19T11:22:52.947Z,86.38
2023-01-19T11:23:52.947Z,86.27
2023-01-19T11:24:52.937Z,86.69
2023-01-19T11:25:52.958Z,85.34
2023-01-19T11:26:52.926Z,86.59
2023-01-19T11:27:52.972Z,86.42
2023-01-19T11:28:52.917Z,86.77
2023-01-19T11:29:52.949Z,86.42
2023-01-19T11:30:52.930Z,86.32
2023-01-19T11:31:52.948Z,86.42
2023-01-19T11:32:52.889Z,86.73
2023-01-19T11:33:52.897Z,86.21
2023-01-19T11:34:52.869Z,86.38
2023-01-19T11:35:52.887Z,86.38
2023-01-19T11:36:52.894Z,86.38
2023-01-19T11:37:52.860Z,86.13
2023-01-19T11:38:52.876Z,86.27
2023-01-19T11:39:52.861Z,86.07
2023-01-19T11:40:52.854Z,86.32
2023-01-19T11:41:52.828Z,86.73
2023-01-19T11:42:52.839Z,87.01
2023-01-19T11:43:52.824Z,87.63
2023-01-19T11:44:52.816Z,87.25
2023-01-19T11:45:52.873Z,88.12
2023-01-19T11:46:52.797Z,88.92
2023-01-19T11:47:52.794Z,89.12
2023-01-19T11:48:52.815Z,89.23
2023-01-19T11:49:52.787Z,90.06
2023-01-19T11:50:52.766Z,90.41
2023-01-19T11:51:52.780Z,90.41
2023-01-19T11:52:52.770Z,90.89
2023-01-19T11:53:52.775Z,90.41
2023-01-19T11:54:52.767Z,90.93
2023-01-19T11:55:52.762Z,91.10
2023-01-19T11:56:53.439Z,91.14
2023-01-19T11:57:54.364Z,90.93
2023-01-19T11:58:53.730Z,90.79
2023-01-19T11:59:52.732Z,90.69
2023-01-19T12:00:52.754Z,90.37
2023-01-19T12:01:52.777Z,90.62
2023-01-19T12:02:52.717Z,91.10
2023-01-19T12:03:54.696Z,90.58
2023-01-19T12:04:53.697Z,90.37
2023-01-19T12:05:52.693Z,90.26
2023-01-19T12:06:52.680Z,89.95
2023-01-19T12:07:52.691Z,91.10
2023-01-19T12:08:52.664Z,91.00
2023-01-19T12:09:52.652Z,90.79
2023-01-19T12:10:52.669Z,90.58
2023-01-19T12:11:52.652Z,90.89
2023-01-19T12:12:52.661Z,90.69
2023-01-19T12:13:53.858Z,91.37
2023-01-19T12:14:53.627Z,90.69
2023-01-19T12:15:52.630Z,90.69
2023-01-19T12:16:52.663Z,90.47
2023-01-19T12:17:52.615Z,91.10
2023-01-19T12:18:52.600Z,91.00
2023-01-19T12:19:54.844Z,90.89
2023-01-19T12:20:53.613Z,91.20
2023-01-19T12:21:52.634Z,90.79
2023-01-19T12:22:52.607Z,91.00
2023-01-19T12:23:52.590Z,90.95
2023-01-19T12:24:52.571Z,91.06
2023-01-19T12:25:54.776Z,91.10
2023-01-19T12:26:53.552Z,90.69
2023-01-19T12:27:52.631Z,91.10
2023-01-19T12:28:52.597Z,92.24
2023-01-19T12:29:52.569Z,90.95
2023-01-19T12:30:52.699Z,91.47
2023-01-19T12:31:52.645Z,90.75
2023-01-19T12:32:52.546Z,91.06
2023-01-19T12:33:52.539Z,91.47
2023-01-19T12:34:52.541Z,90.70
2023-01-19T12:35:52.559Z,90.75
2023-01-19T12:36:52.535Z,91.16
2023-01-19T12:37:52.501Z,91.02
2023-01-19T12:38:52.487Z,90.91
2023-01-19T12:39:52.516Z,90.60
2023-01-19T12:40:52.484Z,90.70
2023-01-19T12:41:52.506Z,90.39
2023-01-19T12:42:52.490Z,90.39
2023-01-19T12:43:52.472Z,90.12
2023-01-19T12:44:52.480Z,90.75
2023-01-19T12:45:53.490Z,90.85
2023-01-19T12:46:52.464Z,91.22
2023-01-19T12:47:52.991Z,90.81
2023-01-19T12:48:53.435Z,90.29
2023-01-19T12:49:52.426Z,90.50
2023-01-19T12:50:52.449Z,90.56
2023-01-19T12:51:52.411Z,90.50
2023-01-19T12:52:52.410Z,90.54